Time;durP1;ratioP1;P1;durP2;ratioP2;P2;SDS_P1;SDS_P2;PMS_P1;PMS_P2;Temp;Humidity;BMP_temperature;BMP_pressure;BME280_temperature;BME280_humidity;BME280_pressure;Samples;Min_cycle;Max_cycle;Signal;HPM_P1;HPM_P2
2022/06/18 00:01:00;;;;;;;4.43;2.33;;;;;;;26.16;42.75;100261.59;4200522;28;20040;-75
2022/06/18 00:03:01;;;;;;;3.88;2.30;;;;;;;26.13;42.62;100262.25;4199076;28;20462;-73
2022/06/18 00:05:03;;;;;;;4.15;2.17;;;;;;;26.18;42.76;100266.88;4199006;28;20079;-75
2022/06/18 00:07:17;;;;;;;2.47;2.10;;;;;;;26.09;42.50;100253.69;4200406;28;20074;-74
2022/06/18 00:09:27;;;;;;;4.22;2.10;;;;;;;26.15;42.58;100256.31;4200408;28;20215;-76
2022/06/18 00:13:53;;;;;;;3.33;2.10;;;;;;;26.17;42.77;100260.44;4200716;28;20097;-75
2022/06/18 00:15:56;;;;;;;2.65;2.10;;;;;;;26.16;42.49;100261.59;4199655;28;20052;-75
2022/06/18 00:17:57;;;;;;;3.35;2.53;;;;;;;26.12;42.68;100255.00;4199308;28;20094;-75
2022/06/18 00:19:59;;;;;;;3.05;2.10;;;;;;;26.15;42.43;100257.13;4199254;28;20102;-75
2022/06/18 00:22:00;;;;;;;2.97;2.08;;;;;;;26.15;42.40;100262.72;4199441;28;20192;-75
2022/06/18 00:24:06;;;;;;;3.58;2.22;;;;;;;26.14;42.41;100265.88;4199882;28;20418;-74
2022/06/18 00:26:09;;;;;;;3.45;2.17;;;;;;;26.04;42.27;100258.66;4199593;28;20045;-75
2022/06/18 00:28:23;;;;;;;2.50;1.90;;;;;;;26.13;42.36;100272.66;4199823;28;20048;-75
2022/06/18 00:30:27;;;;;;;2.13;1.88;;;;;;;26.09;42.33;100259.28;4202215;28;20449;-74
2022/06/18 00:32:31;;;;;;;2.67;1.90;;;;;;;26.14;42.19;100272.31;4216258;28;20044;-75
2022/06/18 00:34:33;;;;;;;2.47;1.88;;;;;;;26.03;42.37;100255.03;4215777;28;20058;-75
2022/06/18 00:36:40;;;;;;;2.47;2.25;;;;;;;26.12;42.13;100273.81;4216175;28;20036;-75
2022/06/18 00:38:45;;;;;;;3.78;2.47;;;;;;;26.13;42.20;100278.25;4215818;28;20097;-74
2022/06/18 00:40:46;;;;;;;2.80;2.60;;;;;;;26.11;41.97;100270.16;4216537;28;20093;-74
2022/06/18 00:42:49;;;;;;;4.20;2.15;;;;;;;26.12;42.11;100269.03;4215468;28;20089;-74
2022/06/18 00:44:54;;;;;;;2.25;2.05;;;;;;;26.10;42.02;100271.31;4216224;28;20491;-75
2022/06/18 00:47:13;;;;;;;2.65;2.15;;;;;;;26.10;42.17;100265.72;4214609;28;20404;-75
2022/06/18 00:49:29;;;;;;;2.13;1.88;;;;;;;26.10;42.38;100269.34;4216520;28;20036;-75
2022/06/18 00:51:38;;;;;;;2.00;1.55;;;;;;;26.08;42.39;100262.44;4216107;28;20093;-74
2022/06/18 00:53:52;;;;;;;4.30;2.40;;;;;;;26.06;42.38;100265.56;4216408;28;20438;-75
2022/06/18 00:56:06;;;;;;;2.20;1.83;;;;;;;26.11;42.15;100278.56;4215733;28;20040;-75
2022/06/18 00:58:14;;;;;;;2.38;1.90;;;;;;;26.11;42.18;100278.56;4215115;28;20109;-74
2022/06/18 01:00:40;;;;;;;4.60;2.00;;;;;;;26.08;42.17;100285.69;4216230;28;20117;-74
2022/06/18 01:02:45;;;;;;;2.75;2.00;;;;;;;26.11;42.42;100284.19;4216033;28;20044;-73
2022/06/18 01:04:46;;;;;;;2.35;2.00;;;;;;;26.11;42.01;100278.56;4208301;28;20040;-75
2022/06/18 01:06:48;;;;;;;2.80;2.22;;;;;;;26.11;42.05;100272.97;4198349;28;20041;-75
2022/06/18 01:09:06;;;;;;;2.05;1.85;;;;;;;26.11;42.26;100278.56;4199292;28;20045;-76
2022/06/18 01:11:18;;;;;;;1.92;1.80;;;;;;;26.10;42.04;100279.75;4199193;28;20098;-75
2022/06/18 01:13:25;;;;;;;1.88;1.77;;;;;;;26.10;41.82;100282.53;4199093;28;20036;-74
2022/06/18 01:15:27;;;;;;;2.20;1.92;;;;;;;26.10;42.11;100288.16;4198751;28;20545;-74
2022/06/18 01:17:31;;;;;;;1.70;1.60;;;;;;;26.11;42.08;100284.19;4197978;28;20044;-74
2022/06/18 01:19:42;;;;;;;1.48;1.35;;;;;;;26.10;42.09;100282.53;4198631;28;20037;-74
2022/06/18 01:22:21;;;;;;;2.55;1.70;;;;;;;26.07;41.91;100286.84;4198274;28;20094;-74
2022/06/18 01:24:41;;;;;;;2.10;1.90;;;;;;;26.09;42.07;100290.13;4191428;28;20048;-74
2022/06/18 01:26:48;;;;;;;2.15;1.92;;;;;;;26.10;41.80;100288.16;4198759;28;20090;-73
2022/06/18 01:28:50;;;;;;;2.22;1.98;;;;;;;26.10;41.80;100285.34;4198448;28;20110;-75
2022/06/18 01:30:51;;;;;;;3.05;2.00;;;;;;;26.08;41.97;100296.09;4199068;28;20094;-75
2022/06/18 01:32:56;;;;;;;2.28;1.83;;;;;;;25.85;41.81;100253.41;4198568;28;20086;-75
2022/06/18 01:34:58;;;;;;;2.03;1.83;;;;;;;26.04;41.88;100283.88;4198450;28;20037;-74
2022/06/18 01:37:01;;;;;;;1.98;1.70;;;;;;;26.08;41.85;100287.66;4199599;28;20032;-72
2022/06/18 01:39:07;;;;;;;2.28;2.00;;;;;;;26.08;41.87;100299.72;4198426;28;20049;-73
2022/06/18 01:41:50;;;;;;;2.13;1.80;;;;;;;26.05;41.99;100296.72;4198663;28;20038;-74
2022/06/18 01:43:56;;;;;;;2.53;1.83;;;;;;;26.00;41.72;100282.88;4179493;28;20045;-75
2022/06/18 01:46:02;;;;;;;1.92;1.80;;;;;;;26.07;41.74;100288.81;4180464;28;20553;-75
2022/06/18 01:48:14;;;;;;;2.28;1.85;;;;;;;26.07;41.68;100291.59;4180772;28;20118;-75
2022/06/18 01:50:27;;;;;;;2.00;1.90;;;;;;;26.07;41.91;100297.22;4198684;28;20041;-75
2022/06/18 01:52:37;;;;;;;2.10;1.90;;;;;;;26.00;41.91;100282.88;4198619;28;20162;-75
2022/06/18 01:54:46;;;;;;;2.47;1.80;;;;;;;26.07;41.64;100294.41;4198041;28;20496;-75
2022/06/18 01:56:54;;;;;;;2.97;1.92;;;;;;;25.98;41.75;100279.56;4198038;28;20070;-74
2022/06/18 01:59:13;;;;;;;1.77;1.67;;;;;;;26.05;41.63;100302.34;4197932;28;20048;-75
2022/06/18 02:01:38;;;;;;;2.60;1.80;;;;;;;26.04;41.55;100309.13;4198531;28;20118;-74
2022/06/18 02:03:39;;;;;;;1.83;1.73;;;;;;;26.06;41.45;100309.59;4197658;28;20545;-73
2022/06/18 02:05:41;;;;;;;2.47;2.08;;;;;;;25.92;41.57;100294.94;4198184;28;20475;-75
2022/06/18 02:07:47;;;;;;;2.13;1.90;;;;;;;26.05;41.68;100305.16;4197980;28;20036;-73
2022/06/18 02:10:03;;;;;;;2.08;1.80;;;;;;;25.98;41.58;100297.25;4198467;28;20098;-74
2022/06/18 02:12:21;;;;;;;2.00;1.80;;;;;;;26.04;41.47;100318.34;4198381;28;20040;-74
2022/06/18 02:14:28;;;;;;;2.45;1.80;;;;;;;26.05;41.39;100313.56;4198382;28;20446;-74
2022/06/18 02:16:37;;;;;;;2.90;1.80;;;;;;;26.05;41.40;100319.16;4200036;28;20041;-75
2022/06/18 02:18:40;;;;;;;2.22;1.70;;;;;;;26.06;41.68;100326.41;4202864;28;20033;-74
2022/06/18 02:20:51;;;;;;;2.00;1.80;;;;;;;25.99;41.32;100317.69;4198053;28;20040;-72
2022/06/18 02:22:55;;;;;;;2.22;1.80;;;;;;;25.99;41.64;100317.69;4198163;28;20091;-75
2022/06/18 02:24:57;;;;;;;1.70;1.60;;;;;;;26.05;41.76;100330.38;4195939;28;20110;-75
2022/06/18 02:26:58;;;;;;;2.03;1.88;;;;;;;25.97;41.38;100311.56;4198005;28;20109;-75
2022/06/18 02:29:00;;;;;;;1.80;1.42;;;;;;;26.04;41.46;100329.56;4199551;28;20041;-75
2022/06/18 02:31:03;;;;;;;2.72;1.77;;;;;;;26.04;41.47;100331.53;4200946;28;20048;-74
2022/06/18 02:33:17;;;;;;;2.47;1.90;;;;;;;26.03;41.41;100330.72;4201158;28;20045;-74
2022/06/18 02:35:19;;;;;;;3.80;2.40;;;;;;;26.03;41.44;100327.09;4201399;28;20040;-75
2022/06/18 02:37:27;;;;;;;1.67;1.58;;;;;;;26.01;41.39;100332.19;4201219;28;20553;-75
2022/06/18 02:39:50;;;;;;;2.13;1.92;;;;;;;26.01;41.33;100323.78;4200711;28;20041;-75
2022/06/18 02:42:04;;;;;;;2.72;1.90;;;;;;;25.96;41.09;100315.53;4201739;28;20046;-75
2022/06/18 02:44:09;;;;;;;2.65;1.70;;;;;;;26.01;41.02;100329.38;4201115;28;20057;-75
2022/06/18 02:46:11;;;;;;;2.08;1.88;;;;;;;25.95;41.06;100330.72;4203798;28;20369;-76
2022/06/18 02:48:32;;;;;;;2.28;2.00;;;;;;;26.02;41.29;100345.03;4200756;28;20098;-75
2022/06/18 02:50:39;;;;;;;2.08;1.33;;;;;;;25.90;41.49;100317.69;4201416;28;20248;-75
2022/06/18 02:52:50;;;;;;;2.25;1.75;;;;;;;26.01;41.20;100335.00;4201003;28;20040;-75
2022/06/18 02:55:00;;;;;;;2.45;1.95;;;;;;;26.01;41.28;100340.59;4201106;28;20044;-74
2022/06/18 02:57:10;;;;;;;1.80;1.70;;;;;;;26.01;41.20;100343.41;4200765;28;20059;-74
2022/06/18 02:59:11;;;;;;;2.75;1.80;;;;;;;26.02;41.14;100347.84;4200769;28;20480;-74
2022/06/18 03:01:24;;;;;;;2.28;2.03;;;;;;;26.00;41.52;100345.38;4200980;28;20041;-75
2022/06/18 03:03:33;;;;;;;1.80;1.70;;;;;;;26.01;41.31;100351.81;4200140;28;20142;-75
2022/06/18 03:05:35;;;;;;;2.58;2.15;;;;;;;26.01;41.39;100351.81;4201122;28;20044;-74
2022/06/18 03:07:36;;;;;;;1.65;1.55;;;;;;;26.01;41.24;100352.63;4200975;28;20044;-74
2022/06/18 03:12:08;;;;;;;1.67;1.58;;;;;;;26.00;41.10;100350.19;4201476;28;20082;-75
2022/06/18 03:14:13;;;;;;;2.00;1.75;;;;;;;25.99;41.08;100351.34;4201320;28;20044;-75
2022/06/18 03:16:26;;;;;;;1.48;1.38;;;;;;;25.99;41.09;100356.94;4200451;28;20105;-75
2022/06/18 03:18:32;;;;;;;1.60;1.50;;;;;;;25.98;41.17;100352.47;4200337;28;20094;-75
2022/06/18 03:20:58;;;;;;;1.73;1.63;;;;;;;25.98;41.16;100363.69;4201648;28;20044;-75
2022/06/18 03:22:59;;;;;;;;;;;;;;;25.99;41.11;100359.75;4201182;28;20063;-75
2022/06/18 03:25:00;;;;;;;2.42;1.58;;;;;;;26.04;40.96;100368.00;4200444;28;19932;-75
2022/06/18 03:27:03;;;;;;;3.17;1.80;;;;;;;26.03;41.00;100360.75;4215214;28;20113;-73
2022/06/18 03:29:07;;;;;;;1.67;1.58;;;;;;;26.02;40.83;100367.47;4223222;28;20040;-75
2022/06/18 03:31:08;;;;;;;3.35;1.80;;;;;;;26.02;40.75;100365.50;4225109;28;20093;-75
2022/06/18 03:33:13;;;;;;;1.55;1.45;;;;;;;25.98;40.71;100360.88;4223572;28;20074;-75
2022/06/18 03:35:15;;;;;;;1.90;1.48;;;;;;;26.02;40.71;100381.50;4226444;28;20141;-74
2022/06/18 03:37:17;;;;;;;1.60;1.50;;;;;;;26.03;40.58;100383.16;4225452;28;20042;-73
2022/06/18 03:39:19;;;;;;;2.58;1.50;;;;;;;26.03;40.98;100383.16;4224324;28;20044;-73
2022/06/18 03:41:23;;;;;;;1.80;1.65;;;;;;;26.02;40.84;100384.28;4220708;28;20474;-74
2022/06/18 03:43:27;;;;;;;1.70;1.60;;;;;;;26.03;40.53;100383.16;4207218;28;20106;-73
2022/06/18 03:45:31;;;;;;;2.78;2.08;;;;;;;26.04;40.73;100384.81;4204819;28;20140;-73
2022/06/18 03:47:35;;;;;;;1.70;1.60;;;;;;;26.03;40.49;100389.59;4208001;28;20036;-74
2022/06/18 03:49:37;;;;;;;1.83;1.50;;;;;;;26.02;40.78;100389.91;4208448;28;20098;-74
2022/06/18 03:51:39;;;;;;;1.77;1.48;;;;;;;25.99;40.63;100377.38;4209917;28;20037;-74
2022/06/18 03:53:41;;;;;;;2.40;1.33;;;;;;;26.04;40.68;100393.22;4212112;28;20029;-74
2022/06/18 03:55:45;;;;;;;1.60;1.50;;;;;;;26.03;40.47;100392.41;4214832;28;20041;-74
2022/06/18 03:57:47;;;;;;;4.27;1.50;;;;;;;26.01;40.63;100385.47;4215438;28;20033;-73
2022/06/18 03:59:48;;;;;;;1.70;1.60;;;;;;;25.97;40.59;100367.66;4200840;28;20040;-73
2022/06/18 04:01:50;;;;;;;1.85;1.60;;;;;;;25.96;40.44;100368.81;4199539;28;20044;-74
2022/06/18 04:03:51;;;;;;;2.55;2.03;;;;;;;26.01;40.44;100386.28;4199469;28;20098;-74
2022/06/18 04:05:53;;;;;;;1.80;1.40;;;;;;;25.99;40.51;100371.78;4199668;28;20085;-74
2022/06/18 04:08:00;;;;;;;1.60;1.50;;;;;;;25.97;40.59;100374.06;4199263;28;20097;-74
2022/06/18 04:10:01;;;;;;;1.95;1.70;;;;;;;25.90;40.37;100356.13;4199655;28;20127;-73
2022/06/18 04:12:06;;;;;;;1.48;1.38;;;;;;;25.96;40.50;100371.59;4199451;28;20094;-75
2022/06/18 04:14:07;;;;;;;1.55;1.27;;;;;;;25.97;40.34;100367.66;4199641;28;20090;-75
2022/06/18 04:16:10;;;;;;;1.50;1.40;;;;;;;25.96;40.18;100371.59;4199637;28;20109;-75
2022/06/18 04:18:16;;;;;;;1.60;1.50;;;;;;;25.93;40.57;100369.44;4208900;28;20040;-75
2022/06/18 04:20:23;;;;;;;2.67;1.50;;;;;;;25.88;40.43;100348.00;4214856;28;20507;-75
2022/06/18 04:22:25;;;;;;;1.52;1.38;;;;;;;25.91;40.32;100363.38;4216734;28;20102;-74
2022/06/18 04:24:27;;;;;;;1.75;1.65;;;;;;;25.92;40.40;100363.03;4216664;28;20097;-74
2022/06/18 04:26:28;;;;;;;1.60;1.50;;;;;;;25.92;40.57;100365.00;4216679;28;20467;-75
2022/06/18 04:28:29;;;;;;;1.42;1.30;;;;;;;25.92;40.48;100370.63;4216021;28;20040;-75
2022/06/18 04:30:32;;;;;;;1.38;1.27;;;;;;;25.93;40.60;100377.88;4216248;28;20044;-74
2022/06/18 04:32:36;;;;;;;1.40;1.30;;;;;;;25.84;40.44;100355.44;4216977;28;20040;-74
2022/06/18 04:34:38;;;;;;;1.80;1.70;;;;;;;25.90;40.41;100361.72;4215640;28;20118;-74
2022/06/18 04:36:43;;;;;;;1.45;1.35;;;;;;;25.91;40.22;100368.97;4215802;28;20040;-75
2022/06/18 04:38:45;;;;;;;1.60;1.50;;;;;;;25.91;40.25;100360.56;4215724;28;20036;-74
2022/06/18 04:40:52;;;;;;;1.67;1.40;;;;;;;25.91;40.04;100360.56;4215597;28;20040;-74
2022/06/18 04:42:53;;;;;;;1.52;1.42;;;;;;;25.91;40.30;100360.56;4216114;28;20082;-75
2022/06/18 04:44:55;;;;;;;1.58;1.48;;;;;;;25.81;40.26;100344.91;4215812;28;20048;-74
2022/06/18 04:46:56;;;;;;;3.03;1.70;;;;;;;25.89;40.11;100348.84;4216360;28;20085;-74
2022/06/18 04:48:58;;;;;;;1.63;1.52;;;;;;;25.89;40.21;100354.44;4216359;28;20056;-74
2022/06/18 04:50:59;;;;;;;1.27;1.17;;;;;;;25.87;40.03;100348.34;4216459;28;20101;-75
2022/06/18 04:53:01;;;;;;;1.92;1.50;;;;;;;25.86;40.01;100344.72;4216836;28;20036;-74
2022/06/18 04:55:02;;;;;;;1.67;1.55;;;;;;;25.88;40.08;100350.00;4216082;28;20036;-74
2022/06/18 04:57:04;;;;;;;1.40;1.30;;;;;;;25.83;40.10;100340.59;4216279;28;20040;-74
2022/06/18 04:59:05;;;;;;;2.38;1.63;;;;;;;25.88;40.26;100352.81;4216234;28;20437;-74
2022/06/18 05:01:07;;;;;;;1.75;1.55;;;;;;;25.88;39.95;100347.19;4215467;28;20105;-74
2022/06/18 05:03:18;;;;;;;1.30;1.20;;;;;;;25.87;40.18;100351.16;4215987;28;20036;-74
2022/06/18 05:05:23;;;;;;;1.65;1.35;;;;;;;25.88;40.30;100350.00;4216669;28;20024;-73
2022/06/18 05:07:27;;;;;;;1.80;1.50;;;;;;;25.85;40.23;100346.72;4217410;28;20028;-74
2022/06/18 05:09:32;;;;;;;1.30;1.20;;;;;;;25.88;39.83;100347.19;4201867;28;20049;-75
2022/06/18 05:11:33;;;;;;;1.80;1.63;;;;;;;25.88;39.99;100335.97;4199498;28;20422;-75
2022/06/18 05:13:34;;;;;;;1.55;1.20;;;;;;;25.88;40.05;100359.22;4199291;28;20098;-75
2022/06/18 05:15:36;;;;;;;2.90;1.40;;;;;;;25.87;40.06;100357.59;4199654;28;20365;-75
2022/06/18 05:17:43;;;;;;;1.05;0.98;;;;;;;25.85;40.17;100346.72;4199641;28;20040;-75
2022/06/18 05:19:45;;;;;;;1.40;1.30;;;;;;;25.79;40.06;100342.41;4198241;28;20110;-75
2022/06/18 05:21:49;;;;;;;1.50;1.40;;;;;;;25.84;39.71;100359.09;4198683;28;20040;-75
2022/06/18 05:23:51;;;;;;;1.30;1.20;;;;;;;25.85;39.95;100360.72;4198775;28;20036;-75
2022/06/18 05:25:58;;;;;;;1.55;1.45;;;;;;;25.85;39.89;100355.13;4197664;28;20438;-75
2022/06/18 05:28:00;;;;;;;1.27;1.13;;;;;;;25.85;39.87;100357.94;4198176;28;20036;-75
2022/06/18 05:30:06;;;;;;;1.40;1.30;;;;;;;25.87;39.94;100370.78;4197906;28;20487;-74
2022/06/18 05:32:07;;;;;;;1.15;1.10;;;;;;;25.85;39.58;100369.13;4198102;28;20542;-75
2022/06/18 05:34:09;;;;;;;1.48;1.27;;;;;;;25.84;39.88;100367.50;4198296;28;20472;-73
2022/06/18 05:36:19;;;;;;;1.50;1.40;;;;;;;25.84;39.83;100375.03;4198754;28;20463;-75
2022/06/18 05:38:21;;;;;;;1.95;1.63;;;;;;;25.85;39.85;100382.31;4197921;28;20090;-75
2022/06/18 05:40:23;;;;;;;2.17;1.17;;;;;;;25.81;39.59;100370.94;4198326;28;20044;-75
2022/06/18 05:42:27;;;;;;;1.40;1.30;;;;;;;25.78;39.69;100376.38;4197612;28;20044;-75
2022/06/18 05:44:34;;;;;;;1.38;1.27;;;;;;;25.82;39.62;100378.19;4198280;28;20044;-75
2022/06/18 05:46:35;;;;;;;1.50;1.40;;;;;;;25.84;39.75;100384.31;4198115;28;20044;-75
2022/06/18 05:48:37;;;;;;;1.30;1.20;;;;;;;25.84;39.46;100387.13;4198019;28;20386;-75
2022/06/18 05:50:41;;;;;;;1.60;1.50;;;;;;;25.53;39.71;100327.53;4198069;28;20446;-75
2022/06/18 05:52:43;;;;;;;1.10;1.00;;;;;;;25.83;39.48;100384.63;4198221;28;20094;-75
2022/06/18 05:54:44;;;;;;;1.33;1.23;;;;;;;25.81;39.49;100381.34;4197710;28;20040;-75
2022/06/18 05:56:50;;;;;;;1.60;1.50;;;;;;;25.81;39.33;100387.75;4198258;28;20102;-74
2022/06/18 05:58:51;;;;;;;1.50;1.40;;;;;;;25.81;39.76;100390.56;4196901;28;20040;-75
2022/06/18 06:00:53;;;;;;;1.20;1.10;;;;;;;25.81;39.46;100386.94;4198670;28;20037;-75
2022/06/18 06:02:54;;;;;;;2.42;1.52;;;;;;;25.81;39.35;100379.34;4198522;28;20041;-74
2022/06/18 06:04:55;;;;;;;1.80;1.40;;;;;;;25.80;39.48;100374.91;4202440;28;20470;-74
2022/06/18 06:06:57;;;;;;;1.45;1.35;;;;;;;25.81;39.80;100375.72;4201555;28;20036;-75
2022/06/18 06:08:59;;;;;;;1.40;1.30;;;;;;;25.80;39.61;100369.28;4201664;28;20095;-75
2022/06/18 06:13:42;;;;;;;1.40;1.30;;;;;;;25.79;39.53;100378.00;4202874;28;20158;-73
2022/06/18 06:15:44;;;;;;;2.45;1.30;;;;;;;25.76;39.51;100373.91;4199492;28;20526;-74
2022/06/18 06:17:48;;;;;;;1.25;1.15;;;;;;;25.78;39.42;100380.00;4201152;28;20470;-74
2022/06/18 06:19:58;;;;;;;1.88;1.20;;;;;;;25.75;39.27;100360.16;4201858;28;20414;-73
2022/06/18 06:21:59;;;;;;;1.33;1.23;;;;;;;25.79;39.60;100367.63;4199797;28;20098;-74
2022/06/18 06:24:01;;;;;;;1.58;1.13;;;;;;;25.79;39.32;100366.81;4201506;28;20310;-74
2022/06/18 06:26:23;;;;;;;1.20;1.02;;;;;;;25.73;39.57;100352.09;4200960;28;20036;-73
2022/06/18 06:28:30;;;;;;;1.58;1.45;;;;;;;25.73;39.46;100356.88;4201061;28;20094;-73
2022/06/18 06:30:33;;;;;;;1.15;1.13;;;;;;;25.79;39.64;100372.41;4201911;28;20074;-73
2022/06/18 06:32:35;;;;;;;1.35;1.25;;;;;;;25.75;39.56;100366.63;4201380;28;20044;-73
2022/06/18 06:34:36;;;;;;;1.83;1.60;;;;;;;25.77;39.41;100369.13;4201097;28;20040;-73
2022/06/18 06:36:40;;;;;;;1.33;1.23;;;;;;;25.76;39.41;100362.69;4213773;28;20445;-72
2022/06/18 06:38:45;;;;;;;1.55;1.30;;;;;;;25.76;39.30;100362.69;4218579;28;20369;-73
2022/06/18 06:40:47;;;;;;;0.90;0.90;;;;;;;25.76;39.19;100362.69;4218028;28;20085;-73
2022/06/18 06:42:55;;;;;;;1.40;1.30;;;;;;;25.76;39.36;100362.69;4218097;28;20040;-73
2022/06/18 06:44:58;;;;;;;1.23;1.13;;;;;;;25.75;39.41;100361.03;4217795;28;20040;-73
2022/06/18 06:47:00;;;;;;;1.20;1.10;;;;;;;25.67;39.25;100347.81;4218150;28;20097;-73
2022/06/18 06:49:01;;;;;;;1.25;1.13;;;;;;;25.68;39.37;100346.66;4217962;28;20039;-73
2022/06/18 06:51:07;;;;;;;1.35;1.25;;;;;;;25.75;38.99;100355.41;4218217;28;20040;-73
2022/06/18 06:53:10;;;;;;;1.52;1.30;;;;;;;25.74;39.30;100350.94;4201630;28;20041;-73
2022/06/18 06:57:44;;;;;;;1.42;1.33;;;;;;;25.73;39.35;100340.88;4200733;28;20154;-73
2022/06/18 06:59:46;;;;;;;0.95;0.90;;;;;;;25.75;39.35;100341.41;4201157;28;20045;-73
2022/06/18 07:01:52;;;;;;;1.50;1.40;;;;;;;25.75;39.30;100349.81;4200836;28;20445;-73
2022/06/18 07:03:54;;;;;;;1.35;1.25;;;;;;;25.74;39.36;100348.13;4200861;28;20479;-73
2022/06/18 07:05:57;;;;;;;1.30;1.10;;;;;;;25.74;39.52;100347.31;4200735;28;20094;-73
2022/06/18 07:07:58;;;;;;;1.58;1.35;;;;;;;25.73;39.13;100340.88;4209002;28;20044;-73
2022/06/18 07:09:59;;;;;;;1.02;1.02;;;;;;;25.72;39.44;100347.66;4217578;28;20105;-73
2022/06/18 07:12:04;;;;;;;1.30;1.20;;;;;;;25.72;39.04;100347.66;4216799;28;20807;-73
2022/06/18 07:14:06;;;;;;;1.10;1.00;;;;;;;25.71;39.22;100336.78;4217760;28;20360;-73
2022/06/18 07:16:13;;;;;;;1.05;1.00;;;;;;;25.73;39.10;100337.25;4215821;28;20822;-73
2022/06/18 07:18:18;;;;;;;2.35;1.42;;;;;;;25.70;39.11;100341.53;4216576;28;20070;-73
2022/06/18 07:20:22;;;;;;;1.33;1.10;;;;;;;25.72;39.21;100341.22;4217211;28;20070;-73
2022/06/18 07:22:27;;;;;;;1.30;1.10;;;;;;;25.68;39.39;100329.84;4217021;28;20410;-73
2022/06/18 07:24:29;;;;;;;1.35;1.25;;;;;;;25.72;38.96;100338.44;4217278;28;20552;-72
2022/06/18 07:26:33;;;;;;;1.20;1.10;;;;;;;25.72;39.26;100338.44;4211895;28;20040;-73
2022/06/18 07:28:34;;;;;;;1.15;1.13;;;;;;;25.72;39.06;100336.44;4200404;28;20066;-74
2022/06/18 07:30:41;;;;;;;1.33;1.20;;;;;;;25.71;38.89;100337.59;4200073;28;20114;-73
2022/06/18 07:32:45;;;;;;;1.27;1.10;;;;;;;25.71;38.99;100337.59;4200426;28;20480;-73
2022/06/18 07:34:47;;;;;;;0.93;0.82;;;;;;;25.71;38.93;100348.81;4200424;28;20541;-73
2022/06/18 07:36:48;;;;;;;1.75;1.20;;;;;;;25.71;38.96;100348.00;4200662;28;20040;-73
2022/06/18 07:38:49;;;;;;;1.00;1.00;;;;;;;25.71;39.29;100348.00;4200480;28;20037;-73
2022/06/18 07:40:56;;;;;;;1.75;1.15;;;;;;;25.69;38.91;100337.09;4200446;28;20036;-73
2022/06/18 07:43:01;;;;;;;1.38;1.27;;;;;;;25.69;39.23;100342.69;4200448;28;20495;-73
2022/06/18 07:45:20;;;;;;;1.20;1.10;;;;;;;25.67;39.20;100341.38;4199919;28;20044;-74
2022/06/18 07:47:21;;;;;;;1.13;1.02;;;;;;;25.68;38.77;100343.84;4200151;28;20040;-72
2022/06/18 07:49:23;;;;;;;1.30;1.20;;;;;;;25.69;39.16;100351.09;4200437;28;20094;-73
2022/06/18 07:51:26;;;;;;;1.00;1.00;;;;;;;25.69;39.18;100344.69;4200472;28;20036;-74
2022/06/18 07:53:28;;;;;;;1.10;1.00;;;;;;;25.68;38.88;100338.25;4199186;28;20070;-74
2022/06/18 07:55:29;;;;;;;1.95;1.20;;;;;;;25.69;38.83;100337.09;4199766;28;20040;-75
2022/06/18 07:57:31;;;;;;;1.10;1.05;;;;;;;25.70;39.12;100340.72;4199980;28;20880;-74
2022/06/18 07:59:32;;;;;;;1.85;1.20;;;;;;;25.69;39.00;100339.88;4200731;28;20044;-74
2022/06/18 08:01:36;;;;;;;1.10;0.90;;;;;;;25.68;38.74;100337.44;4199452;28;20048;-73
2022/06/18 08:03:38;;;;;;;1.30;1.20;;;;;;;25.68;38.94;100343.84;4199711;28;20040;-74
2022/06/18 08:05:44;;;;;;;1.17;1.08;;;;;;;25.66;38.99;100334.97;4199349;28;20102;-74
2022/06/18 08:07:45;;;;;;;1.27;1.17;;;;;;;25.67;39.11;100342.22;4199391;28;20102;-74
2022/06/18 08:09:46;;;;;;;1.42;1.20;;;;;;;25.63;39.06;100330.00;4199868;28;20117;-74
2022/06/18 08:11:48;;;;;;;1.90;1.20;;;;;;;25.66;38.92;100340.56;4200060;28;20098;-74
2022/06/18 08:13:51;;;;;;;1.42;1.33;;;;;;;25.64;39.03;100336.44;4199646;28;20094;-74
2022/06/18 08:15:52;;;;;;;1.48;1.25;;;;;;;25.65;38.66;100327.69;4200147;28;20082;-74
2022/06/18 08:17:56;;;;;;;1.20;1.10;;;;;;;25.65;38.82;100338.91;4199766;28;20090;-74
2022/06/18 08:19:57;;;;;;;1.30;1.20;;;;;;;25.65;38.55;100327.69;4199463;28;20114;-74
2022/06/18 08:21:59;;;;;;;1.13;1.02;;;;;;;25.63;38.68;100324.41;4199812;28;20078;-74
2022/06/18 08:24:10;;;;;;;0.90;0.90;;;;;;;25.65;38.99;100333.28;4200150;28;20086;-74
2022/06/18 08:26:12;;;;;;;2.05;1.15;;;;;;;25.65;38.53;100327.69;4199174;28;20411;-74
2022/06/18 08:28:15;;;;;;;1.30;1.20;;;;;;;25.64;38.71;100326.03;4199116;28;20025;-74
2022/06/18 08:30:18;;;;;;;1.02;1.02;;;;;;;25.59;38.64;100324.22;4200121;28;20094;-74
2022/06/18 08:32:20;;;;;;;1.40;1.30;;;;;;;25.64;38.85;100331.66;4199353;28;20209;-74
2022/06/18 08:34:21;;;;;;;1.23;1.13;;;;;;;25.65;38.60;100324.88;4199089;28;20438;-72
2022/06/18 08:36:26;;;;;;;1.10;1.00;;;;;;;25.64;38.67;100325.22;4199250;28;20036;-73
2022/06/18 08:38:28;;;;;;;2.33;1.20;;;;;;;25.65;38.60;100333.28;4199378;28;20040;-74
2022/06/18 08:40:36;;;;;;;1.17;1.08;;;;;;;25.63;38.63;100335.59;4211148;28;20094;-74
2022/06/18 08:42:55;;;;;;;1.83;0.80;;;;;;;25.61;38.83;100329.50;4199205;28;20048;-74
2022/06/18 08:45:33;;;;;;;1.20;1.10;;;;;;;25.62;38.73;100328.38;4199708;28;20557;-74
2022/06/18 08:48:02;;;;;;;1.45;1.15;;;;;;;25.63;38.66;100334.78;4198987;28;20584;-74
2022/06/18 08:50:25;;;;;;;1.38;1.23;;;;;;;25.62;38.26;100339.56;4199909;28;20089;-74
2022/06/18 08:53:07;;;;;;;1.20;1.10;;;;;;;25.62;38.72;100345.19;4199876;28;20033;-74
2022/06/18 08:55:19;;;;;;;1.75;1.40;;;;;;;25.63;38.66;100334.78;4199739;28;20541;-74
2022/06/18 08:57:38;;;;;;;1.25;1.10;;;;;;;25.62;38.42;100339.56;4201141;28;20041;-72
2022/06/18 08:59:55;;;;;;;1.88;1.40;;;;;;;25.62;38.47;100339.56;4200442;28;20048;-74
2022/06/18 09:02:20;;;;;;;0.90;0.90;;;;;;;25.60;38.50;100337.06;4200208;28;20466;-73
2022/06/18 09:04:28;;;;;;;;;;;;;;;25.60;38.65;100339.88;4201262;28;20062;-74
2022/06/18 09:06:51;;;;;;;1.20;1.00;;;;;;;25.65;38.46;100346.47;4208941;28;19962;-74
2022/06/18 09:09:10;;;;;;;1.20;1.10;;;;;;;25.65;38.39;100347.31;4218149;28;20029;-73
2022/06/18 09:11:31;;;;;;;1.77;1.20;;;;;;;25.64;38.46;100342.84;4218793;28;20062;-73
2022/06/18 09:13:40;;;;;;;2.05;1.27;;;;;;;25.62;38.51;100347.16;4219095;28;20044;-74
2022/06/18 09:15:47;;;;;;;1.15;1.05;;;;;;;25.59;38.52;100343.84;4218816;28;20074;-73
2022/06/18 09:17:58;;;;;;;1.10;1.00;;;;;;;25.59;38.67;100363.44;4218102;28;20040;-74
2022/06/18 09:20:24;;;;;;;1.10;1.00;;;;;;;25.58;38.56;100360.97;4213282;28;20059;-74
2022/06/18 09:22:27;;;;;;;0.98;0.98;;;;;;;25.56;38.71;100346.47;4217765;28;20062;-73
2022/06/18 09:24:46;;;;;;;1.38;0.95;;;;;;;25.56;38.73;100366.91;4218071;28;20033;-74
2022/06/18 09:26:59;;;;;;;1.40;1.08;;;;;;;25.57;38.53;100367.75;4220452;28;20013;-73
2022/06/18 09:29:24;;;;;;;1.05;0.98;;;;;;;25.57;38.39;100376.97;4217935;28;20033;-74
2022/06/18 09:31:36;;;;;;;1.10;1.10;;;;;;;25.58;38.44;100383.41;4205332;28;20044;-74
2022/06/18 09:33:43;;;;;;;0.80;0.80;;;;;;;25.59;38.66;100387.84;4201289;28;20040;-75
2022/06/18 09:35:47;;;;;;;0.95;0.90;;;;;;;25.59;38.43;100385.03;4198430;28;20113;-75
2022/06/18 09:37:52;;;;;;;1.25;1.10;;;;;;;25.58;38.47;100387.03;4200453;28;20040;-75
2022/06/18 09:40:00;;;;;;;0.95;0.88;;;;;;;25.58;38.57;100394.59;4214343;28;20097;-75
2022/06/18 09:42:06;;;;;;;3.80;1.08;;;;;;;25.57;38.44;100392.97;4216931;28;20479;-74
2022/06/18 09:44:21;;;;;;;1.10;1.00;;;;;;;25.55;38.34;100390.47;4216884;28;20052;-75
2022/06/18 09:46:32;;;;;;;2.53;1.00;;;;;;;25.56;38.61;100399.69;4214284;28;20052;-75
2022/06/18 09:48:33;;;;;;;1.10;1.08;;;;;;;25.55;38.29;100395.25;4215103;28;20101;-75
2022/06/18 09:50:41;;;;;;;1.55;0.90;;;;;;;25.56;38.28;100399.69;4216378;28;20090;-74
2022/06/18 09:52:48;;;;;;;1.13;1.02;;;;;;;25.56;38.39;100406.13;4216056;28;20040;-74
2022/06/18 09:54:59;;;;;;;0.80;0.80;;;;;;;25.56;38.51;100408.91;4216098;28;20605;-75
2022/06/18 09:57:01;;;;;;;0.82;0.82;;;;;;;25.56;38.40;100410.91;4215745;28;20117;-75
2022/06/18 09:59:13;;;;;;;1.80;0.88;;;;;;;25.53;38.53;100408.78;4215461;28;20105;-74